createdAt,value
2022-10-08T00:03:35.604Z,1
2022-10-08T00:13:35.547Z,1
2022-10-08T00:23:35.461Z,1
2022-10-08T00:33:35.389Z,1
2022-10-08T00:43:35.367Z,1
2022-10-08T00:53:35.239Z,1
2022-10-08T01:03:35.177Z,1
2022-10-08T01:13:35.235Z,1
2022-10-08T01:23:35.120Z,1
2022-10-08T01:33:34.979Z,1
2022-10-08T01:43:34.887Z,1
2022-10-08T01:53:34.810Z,1
2022-10-08T02:13:34.669Z,1
2022-10-08T02:23:34.702Z,1
2022-10-08T02:33:34.517Z,1
2022-10-08T02:43:34.443Z,1
2022-10-08T02:53:34.376Z,1
2022-10-08T03:03:34.387Z,1
2022-10-08T03:13:34.210Z,1
2022-10-08T03:23:34.161Z,1
2022-10-08T03:33:34.206Z,1
2022-10-08T03:43:34.016Z,1
2022-10-08T03:53:33.955Z,1
2022-10-08T04:03:33.861Z,1
2022-10-08T04:13:33.775Z,3
2022-10-08T04:23:33.726Z,10
2022-10-08T04:33:33.656Z,15
2022-10-08T04:43:33.580Z,20
2022-10-08T04:53:33.494Z,22
2022-10-08T05:03:33.420Z,22
2022-10-08T05:13:33.345Z,26
2022-10-08T05:23:33.295Z,25
2022-10-08T05:33:33.229Z,25
2022-10-08T05:43:33.126Z,26
2022-10-08T05:53:33.067Z,27
2022-10-08T06:03:32.975Z,27
2022-10-08T06:13:32.909Z,33
2022-10-08T06:23:32.851Z,37
2022-10-08T06:33:32.802Z,33
2022-10-08T06:43:32.714Z,36
2022-10-08T06:53:32.651Z,38
2022-10-08T07:13:32.487Z,40
2022-10-08T07:23:32.434Z,44
2022-10-08T07:33:32.372Z,39
2022-10-08T07:43:32.373Z,44
2022-10-08T07:53:32.201Z,41
2022-10-08T08:03:32.222Z,45
2022-10-08T08:13:36.792Z,43
2022-10-08T08:23:31.993Z,45
2022-10-08T08:33:31.931Z,42
2022-10-08T08:43:31.864Z,39
2022-10-08T08:53:31.774Z,45
2022-10-08T09:03:31.717Z,48
2022-10-08T09:13:31.641Z,48
2022-10-08T09:23:31.551Z,58
2022-10-08T09:33:31.476Z,50
2022-10-08T09:53:31.359Z,56
2022-10-08T10:03:31.294Z,60
2022-10-08T10:13:31.226Z,68
2022-10-08T10:23:31.275Z,71
2022-10-08T10:33:31.216Z,79
2022-10-08T10:43:31.129Z,83
2022-10-08T10:53:30.943Z,84
2022-10-08T11:03:30.879Z,83
2022-10-08T11:13:30.791Z,82
2022-10-08T11:23:32.234Z,83
2022-10-08T11:33:30.674Z,84
2022-10-08T11:43:30.572Z,85
2022-10-08T11:53:30.598Z,85
2022-10-08T12:03:30.792Z,89
2022-10-08T12:13:30.435Z,82
2022-10-08T12:23:30.285Z,83
2022-10-08T12:33:30.217Z,77
2022-10-08T12:43:30.157Z,78
2022-10-08T12:53:30.086Z,73
2022-10-08T13:03:30.018Z,79
2022-10-08T13:13:29.962Z,81
2022-10-08T13:23:29.877Z,81
2022-10-08T13:33:29.805Z,83
2022-10-08T13:43:29.734Z,73
2022-10-08T13:53:29.652Z,69
2022-10-08T14:13:29.523Z,59
2022-10-08T14:23:29.461Z,47
2022-10-08T14:33:29.397Z,34
2022-10-08T14:43:29.312Z,40
2022-10-08T14:53:29.352Z,37
2022-10-08T15:03:29.238Z,34
2022-10-08T15:13:29.080Z,37
2022-10-08T15:23:29.022Z,39
2022-10-08T15:33:28.951Z,40
2022-10-08T15:43:28.875Z,45
2022-10-08T15:53:28.805Z,48
2022-10-08T16:03:28.727Z,51
2022-10-08T16:13:28.644Z,52
2022-10-08T16:23:28.585Z,49
2022-10-08T16:33:28.511Z,45
2022-10-08T16:43:28.449Z,40
2022-10-08T16:53:28.390Z,32
2022-10-08T17:03:28.304Z,29
2022-10-08T17:13:28.238Z,29
2022-10-08T17:23:28.170Z,31
2022-10-08T17:33:30.121Z,30
2022-10-08T17:43:28.024Z,34
2022-10-08T17:53:27.946Z,33
2022-10-08T18:03:27.864Z,33
2022-10-08T18:13:27.802Z,35
2022-10-08T18:23:27.720Z,43
2022-10-08T18:33:27.648Z,54
2022-10-08T18:43:27.593Z,63
2022-10-08T18:53:27.515Z,70
2022-10-08T19:03:27.436Z,69
2022-10-08T19:13:27.371Z,72
2022-10-08T19:23:27.394Z,63
2022-10-08T19:33:27.343Z,67
2022-10-08T19:43:27.147Z,65
2022-10-08T19:53:27.092Z,63
2022-10-08T20:03:27.003Z,52
2022-10-08T20:13:27.050Z,45
2022-10-08T20:23:26.862Z,42
2022-10-08T20:33:26.805Z,37
2022-10-08T20:43:26.871Z,23
2022-10-08T20:53:26.674Z,15
2022-10-08T21:03:26.666Z,3
2022-10-08T21:13:26.517Z,1
2022-10-08T21:23:26.421Z,1
2022-10-08T21:33:26.482Z,1
2022-10-08T21:43:26.307Z,1
2022-10-08T21:53:26.221Z,1
2022-10-08T22:03:26.155Z,1
2022-10-08T22:13:26.084Z,1
2022-10-08T22:23:26.014Z,1
2022-10-08T22:33:26.072Z,1
2022-10-08T22:43:25.874Z,1
2022-10-08T22:53:25.812Z,1
2022-10-08T23:03:25.804Z,1
2022-10-08T23:13:25.642Z,1
2022-10-08T23:23:25.601Z,1
2022-10-08T23:33:25.488Z,1
2022-10-08T23:43:25.416Z,1
2022-10-08T23:53:25.364Z,1
